Sedgwick, Colorado
Current Conditions -  °F | °C
As of 12:53 AM on Friday 19 Dec 2014 (Local Time) from KSNY Reporting Station
Clear Clear  
Wind Chill:   Ceiling: Unl
Heat Index: 21°   Visibility: 10mi
Dew Point: 15°   Wind: 14mph
Humidity: 78%   Direction: 300°WNW
Pressure: 30.07"   Gusts: NA
Location:  40.94°N, 102.53°W
Report Text: KSNY 190753Z AUTO 30012KT 10SM CLR M06/M09 A3007 RMK AO2 SLP213 T10611094
Loading
Personal Weather Stations






























Interactive Weather Map New forecast layout! Learn more

10-Day Weather Forecast

Advertisements
Track Severe Weather on mobile